createdAt,value
2023-05-01T00:01:25.345Z,9.74
2023-05-01T00:03:54.452Z,9.74
2023-05-01T00:06:22.547Z,9.73
2023-05-01T00:08:50.168Z,9.73
2023-05-01T00:11:17.783Z,9.74
2023-05-01T00:13:45.310Z,9.74
2023-05-01T00:16:16.772Z,9.71
2023-05-01T00:18:44.588Z,9.69
2023-05-01T00:21:12.190Z,9.70
2023-05-01T00:23:39.718Z,9.71
2023-05-01T00:26:07.473Z,9.69
2023-05-01T00:28:35.047Z,9.65
2023-05-01T00:31:02.611Z,9.63
2023-05-01T00:33:31.836Z,9.64
2023-05-01T00:36:01.007Z,9.62
2023-05-01T00:38:28.689Z,9.59
2023-05-01T00:40:56.303Z,9.57
2023-05-01T00:43:23.885Z,9.59
2023-05-01T00:45:51.645Z,9.55
2023-05-01T00:48:19.290Z,9.56
2023-05-01T00:50:49.876Z,9.55
2023-05-01T00:53:18.281Z,9.52
2023-05-01T00:55:46.545Z,9.53
2023-05-01T00:58:17.436Z,9.51
2023-05-01T01:00:45.413Z,9.49
2023-05-01T01:03:13.120Z,9.48
2023-05-01T01:05:45.930Z,9.48
2023-05-01T01:08:21.131Z,9.48
2023-05-01T01:10:55.312Z,9.49
2023-05-01T01:13:29.312Z,9.48
2023-05-01T01:16:05.009Z,9.49
2023-05-01T01:18:38.617Z,9.50
2023-05-01T01:21:12.911Z,9.51
2023-05-01T01:24:13.596Z,9.52
2023-05-01T01:27:08.942Z,9.53
2023-05-01T01:29:57.349Z,9.57
2023-05-01T01:32:45.711Z,9.59
2023-05-01T01:35:20.734Z,9.61
2023-05-01T01:37:53.063Z,9.60
2023-05-01T01:40:25.372Z,9.62
2023-05-01T01:42:58.491Z,9.64
2023-05-01T01:45:31.491Z,9.65
2023-05-01T01:48:00.629Z,9.68
2023-05-01T01:50:31.709Z,9.67
2023-05-01T01:53:03.206Z,9.71
2023-05-01T01:55:33.826Z,9.72
2023-05-01T01:58:03.814Z,9.73
2023-05-01T02:00:32.548Z,9.75
2023-05-01T02:03:02.054Z,9.80
2023-05-01T02:05:32.670Z,9.83
2023-05-01T02:08:01.299Z,9.87
2023-05-01T02:10:30.855Z,9.87
2023-05-01T02:18:06.713Z,9.88
2023-05-01T02:20:37.437Z,9.89
2023-05-01T02:23:07.741Z,9.90
2023-05-01T02:25:37.318Z,9.93
2023-05-01T02:28:10.356Z,9.97
2023-05-01T02:30:39.361Z,9.98
2023-05-01T02:33:08.501Z,9.97
2023-05-01T02:35:41.862Z,9.98
2023-05-01T02:38:09.348Z,9.99
2023-05-01T02:40:39.367Z,9.98
2023-05-01T02:43:10.518Z,9.95
2023-05-01T02:45:40.163Z,9.97
2023-05-01T02:48:12.006Z,9.98
2023-05-01T02:50:42.066Z,10.02
2023-05-01T02:53:10.081Z,10.01
2023-05-01T02:55:46.307Z,9.96
2023-05-01T02:58:17.363Z,9.95
2023-05-01T03:00:45.625Z,9.94
2023-05-01T03:03:13.560Z,9.98
2023-05-01T03:05:42.722Z,9.98
2023-05-01T03:08:11.569Z,9.95
2023-05-01T03:10:40.695Z,9.94
2023-05-01T03:13:08.275Z,9.92
2023-05-01T03:15:36.286Z,9.87
2023-05-01T03:18:03.920Z,9.85
2023-05-01T03:20:31.575Z,9.84
2023-05-01T03:23:00.517Z,9.83
2023-05-01T03:25:28.263Z,9.80
2023-05-01T03:27:55.882Z,9.77
2023-05-01T03:30:24.189Z,9.76
2023-05-01T03:32:53.144Z,9.73
2023-05-01T03:35:27.482Z,9.68
2023-05-01T03:37:56.380Z,9.71
2023-05-01T03:40:44.345Z,9.75
2023-05-01T03:43:50.487Z,9.79
2023-05-01T03:46:30.200Z,9.79
2023-05-01T03:48:58.617Z,9.81
2023-05-01T03:51:27.300Z,9.83
2023-05-01T03:53:56.855Z,9.86
2023-05-01T03:56:26.564Z,9.87
2023-05-01T03:58:54.879Z,9.87
2023-05-01T04:01:22.560Z,9.86
2023-05-01T04:03:50.282Z,9.88
2023-05-01T04:06:18.335Z,9.84
2023-05-01T04:08:46.101Z,9.84
2023-05-01T04:11:13.679Z,9.90
2023-05-01T04:13:42.701Z,9.90
2023-05-01T04:16:10.977Z,9.89
2023-05-01T04:18:38.607Z,9.85
2023-05-01T04:21:06.414Z,9.83
2023-05-01T04:23:34.026Z,9.82
2023-05-01T04:26:01.568Z,9.83
2023-05-01T04:28:31.041Z,9.82
2023-05-01T04:31:00.762Z,9.84
2023-05-01T04:33:28.677Z,9.86
2023-05-01T04:35:56.600Z,9.84
2023-05-01T04:38:28.921Z,9.83
2023-05-01T04:40:57.841Z,9.93
2023-05-01T04:43:25.458Z,9.94
2023-05-01T04:45:53.164Z,9.98
2023-05-01T04:48:22.095Z,10.00
2023-05-01T04:50:50.751Z,10.02
2023-05-01T04:53:18.679Z,10.04
2023-05-01T04:55:46.480Z,10.07
2023-05-01T04:58:16.452Z,10.10
2023-05-01T05:00:45.810Z,10.17
2023-05-01T05:03:22.170Z,10.23
2023-05-01T05:05:49.932Z,10.27
2023-05-01T05:08:18.331Z,10.28
2023-05-01T05:10:59.917Z,10.32
2023-05-01T05:13:31.874Z,10.36
2023-05-01T05:16:02.443Z,10.37
2023-05-01T05:18:31.571Z,10.43
2023-05-01T05:20:59.848Z,10.52
2023-05-01T05:23:28.546Z,10.59
2023-05-01T05:25:57.833Z,10.64
2023-05-01T05:28:25.419Z,10.76
2023-05-01T05:30:53.052Z,10.82
2023-05-01T05:33:22.378Z,10.91
2023-05-01T05:35:51.659Z,11.00
2023-05-01T05:38:21.160Z,11.11
2023-05-01T05:40:54.123Z,11.16
2023-05-01T05:43:22.186Z,11.31
2023-05-01T05:45:50.121Z,11.49
2023-05-01T05:48:17.886Z,11.66
2023-05-01T05:50:45.908Z,11.75
2023-05-01T05:53:14.886Z,11.84
2023-05-01T05:55:45.372Z,11.84
2023-05-01T05:58:14.378Z,11.92
2023-05-01T06:00:42.966Z,11.90
2023-05-01T06:03:10.978Z,11.98
2023-05-01T06:05:38.888Z,12.05
2023-05-01T06:08:06.616Z,12.10
2023-05-01T06:10:35.842Z,12.22
2023-05-01T06:13:13.518Z,12.30
2023-05-01T06:15:45.487Z,12.44
2023-05-01T06:18:13.534Z,12.54
2023-05-01T06:20:41.389Z,12.56
2023-05-01T06:23:09.646Z,12.70
2023-05-01T06:25:48.619Z,12.92
2023-05-01T06:28:16.453Z,13.01
2023-05-01T06:30:44.163Z,13.08
2023-05-01T06:33:12.508Z,13.08
2023-05-01T06:35:43.437Z,13.23
2023-05-01T06:38:11.130Z,13.25
2023-05-01T06:40:38.649Z,13.23
2023-05-01T06:43:07.546Z,13.28
2023-05-01T06:45:35.111Z,13.23
2023-05-01T06:48:02.728Z,13.32
2023-05-01T06:50:30.423Z,13.31
2023-05-01T06:53:00.911Z,13.34
2023-05-01T06:55:31.304Z,13.42
2023-05-01T06:58:02.580Z,13.57
2023-05-01T07:00:35.199Z,13.66
2023-05-01T07:03:03.962Z,13.79
2023-05-01T07:05:31.648Z,13.91
2023-05-01T07:08:01.636Z,14.01
2023-05-01T07:10:30.687Z,14.13
2023-05-01T07:12:58.327Z,14.07
2023-05-01T07:15:25.874Z,14.03
2023-05-01T07:17:56.303Z,14.06
2023-05-01T07:20:23.916Z,14.05
2023-05-01T07:22:51.491Z,14.16
2023-05-01T07:25:20.227Z,14.26
2023-05-01T07:27:47.868Z,14.24
2023-05-01T07:30:15.442Z,14.35
2023-05-01T07:32:43.032Z,14.47
2023-05-01T07:35:12.121Z,14.51
2023-05-01T07:37:39.660Z,14.60
2023-05-01T07:40:08.494Z,14.72
2023-05-01T07:42:36.251Z,14.66
2023-05-01T07:45:04.180Z,14.80
2023-05-01T07:47:31.745Z,14.85
2023-05-01T07:50:00.812Z,14.76
2023-05-01T07:52:29.721Z,14.93
2023-05-01T07:54:57.308Z,14.98
2023-05-01T07:57:25.058Z,15.01
2023-05-01T07:59:55.563Z,15.03
2023-05-01T08:02:23.403Z,15.20
2023-05-01T08:04:51.531Z,15.39
2023-05-01T08:07:19.256Z,15.52
2023-05-01T08:09:48.368Z,15.53
2023-05-01T08:12:15.911Z,15.59
2023-05-01T08:14:43.458Z,15.72
2023-05-01T08:17:11.044Z,15.83
2023-05-01T08:19:38.650Z,15.93
2023-05-01T08:22:06.268Z,15.88
2023-05-01T08:24:33.842Z,15.81
2023-05-01T08:27:03.256Z,15.88
2023-05-01T08:29:30.862Z,16.01
2023-05-01T08:31:59.753Z,16.11
2023-05-01T08:34:27.483Z,16.20
2023-05-01T08:36:55.132Z,16.32
2023-05-01T08:39:23.685Z,16.33
2023-05-01T08:41:51.670Z,16.42
2023-05-01T08:44:21.545Z,16.49
2023-05-01T08:46:54.471Z,16.56
2023-05-01T08:49:23.559Z,16.15
2023-05-01T08:51:52.954Z,15.78
2023-05-01T08:54:21.913Z,15.68
2023-05-01T08:56:52.738Z,15.53
2023-05-01T08:59:25.078Z,15.64
2023-05-01T09:01:53.440Z,15.78
2023-05-01T09:04:21.864Z,15.98
2023-05-01T09:06:50.769Z,15.58
2023-05-01T09:09:18.375Z,15.69
2023-05-01T09:11:46.139Z,15.82
2023-05-01T09:14:13.876Z,15.58
2023-05-01T09:16:42.801Z,15.55
2023-05-01T09:19:10.987Z,15.57
2023-05-01T09:21:38.854Z,15.76
2023-05-01T09:24:07.620Z,16.05
2023-05-01T09:26:38.396Z,16.21
2023-05-01T09:29:06.152Z,16.35
2023-05-01T09:31:34.902Z,16.50
2023-05-01T09:34:05.089Z,16.49
2023-05-01T09:36:34.322Z,16.53
2023-05-01T09:39:02.715Z,16.36
2023-05-01T09:41:31.478Z,16.16
2023-05-01T09:43:59.840Z,16.31
2023-05-01T09:46:28.057Z,16.24
2023-05-01T09:48:59.881Z,16.61
2023-05-01T09:51:31.269Z,16.92
2023-05-01T09:54:01.419Z,16.91
2023-05-01T09:56:31.361Z,17.02
2023-05-01T09:59:15.771Z,17.12
2023-05-01T10:01:46.016Z,17.20
2023-05-01T10:04:13.656Z,17.10
2023-05-01T10:06:42.824Z,16.92
2023-05-01T10:09:16.573Z,16.56
2023-05-01T10:11:53.581Z,16.23
2023-05-01T10:14:23.738Z,16.28
2023-05-01T10:16:52.873Z,16.27
2023-05-01T10:19:21.325Z,16.35
2023-05-01T10:21:50.355Z,16.12
2023-05-01T10:24:18.372Z,16.34
2023-05-01T10:26:49.628Z,16.55
2023-05-01T10:29:17.577Z,16.90
2023-05-01T10:31:45.320Z,16.94
2023-05-01T10:34:17.556Z,17.19
2023-05-01T10:36:49.457Z,17.32
2023-05-01T10:39:32.292Z,17.27
2023-05-01T10:42:04.872Z,17.28
2023-05-01T10:44:34.739Z,17.25
2023-05-01T10:47:37.747Z,17.55
2023-05-01T10:50:07.072Z,17.32
2023-05-01T10:53:07.097Z,17.24
2023-05-01T10:55:37.485Z,17.38
2023-05-01T10:58:05.288Z,17.70
2023-05-01T11:00:34.193Z,18.18
2023-05-01T11:03:35.612Z,18.30
2023-05-01T11:06:07.476Z,18.51
2023-05-01T11:08:36.494Z,18.49
2023-05-01T11:11:40.433Z,18.44
2023-05-01T11:14:10.999Z,18.33
2023-05-01T11:16:42.765Z,18.58
2023-05-01T11:19:13.308Z,19.00
2023-05-01T11:21:41.927Z,19.37
2023-05-01T11:24:10.561Z,19.73
2023-05-01T11:26:39.930Z,19.67
2023-05-01T11:29:10.539Z,19.67
2023-05-01T11:31:38.712Z,20.24
2023-05-01T11:34:06.807Z,20.71
2023-05-01T11:36:49.258Z,21.28
2023-05-01T11:39:18.343Z,21.83
2023-05-01T11:41:46.583Z,21.72
2023-05-01T11:44:17.165Z,21.73
2023-05-01T11:46:45.064Z,21.96
2023-05-01T11:49:12.880Z,22.03
2023-05-01T11:51:40.637Z,22.32
2023-05-01T11:54:09.617Z,21.93
2023-05-01T11:56:40.841Z,21.69
2023-05-01T11:59:12.861Z,21.33
2023-05-01T12:01:43.782Z,21.43
2023-05-01T12:04:12.481Z,21.43
2023-05-01T12:06:44.021Z,21.50
2023-05-01T12:09:12.936Z,21.51
2023-05-01T12:11:41.056Z,21.19
2023-05-01T12:14:09.502Z,20.42
2023-05-01T12:16:40.237Z,19.89
2023-05-01T12:19:09.722Z,19.77
2023-05-01T12:21:37.848Z,20.25
2023-05-01T12:24:12.925Z,20.38
2023-05-01T12:26:40.572Z,20.65
2023-05-01T12:29:09.829Z,20.62
2023-05-01T12:31:38.170Z,20.39
2023-05-01T12:34:07.802Z,20.20
2023-05-01T12:36:38.050Z,20.19
2023-05-01T12:39:07.537Z,20.25
2023-05-01T12:41:37.159Z,20.11
2023-05-01T12:44:17.091Z,20.03
2023-05-01T12:46:47.307Z,20.24
2023-05-01T12:49:18.619Z,20.18
2023-05-01T12:51:51.172Z,20.03
2023-05-01T12:54:22.866Z,20.02
2023-05-01T12:56:53.046Z,19.83
2023-05-01T12:59:25.125Z,19.71
2023-05-01T13:02:00.278Z,19.71
2023-05-01T13:04:28.634Z,19.73
2023-05-01T13:06:58.827Z,19.54
2023-05-01T13:09:28.204Z,19.56
2023-05-01T13:12:01.751Z,19.56
2023-05-01T13:14:30.507Z,19.52
2023-05-01T13:16:58.223Z,19.39
2023-05-01T13:19:28.793Z,19.31
2023-05-01T13:21:58.514Z,19.37
2023-05-01T13:24:36.520Z,19.41
2023-05-01T13:27:05.689Z,19.53
2023-05-01T13:29:33.485Z,19.49
2023-05-01T13:32:01.496Z,19.59
2023-05-01T13:34:31.271Z,19.76
2023-05-01T13:37:01.854Z,19.60
2023-05-01T13:39:29.579Z,19.69
2023-05-01T13:41:57.207Z,20.18
2023-05-01T13:44:24.877Z,20.62
2023-05-01T13:46:52.477Z,21.59
2023-05-01T13:49:22.760Z,23.49
2023-05-01T13:51:50.853Z,25.43
2023-05-01T13:54:20.404Z,27.21
2023-05-01T13:56:47.948Z,28.44
2023-05-01T13:59:16.009Z,30.37
2023-05-01T14:01:46.341Z,31.54
2023-05-01T14:04:17.910Z,32.38
2023-05-01T14:06:47.028Z,33.26
2023-05-01T14:09:18.185Z,33.95
2023-05-01T14:11:48.157Z,35.02
2023-05-01T14:14:16.355Z,36.03
2023-05-01T14:16:48.379Z,35.24
2023-05-01T14:19:17.164Z,34.92
2023-05-01T14:21:45.268Z,34.59
2023-05-01T14:24:14.190Z,35.30
2023-05-01T14:26:44.265Z,35.50
2023-05-01T14:29:22.587Z,35.56
2023-05-01T14:31:50.668Z,36.44
2023-05-01T14:34:19.475Z,35.36
2023-05-01T14:36:47.058Z,35.67
2023-05-01T14:39:16.671Z,35.03
2023-05-01T14:41:44.252Z,33.90
2023-05-01T14:44:13.773Z,32.53
2023-05-01T14:46:49.502Z,31.70
2023-05-01T14:49:20.100Z,29.99
2023-05-01T14:51:47.812Z,27.98
2023-05-01T14:54:16.310Z,26.40
2023-05-01T14:56:44.562Z,25.23
2023-05-01T14:59:12.453Z,24.46
2023-05-01T15:01:40.450Z,23.50
2023-05-01T15:04:10.972Z,23.11
2023-05-01T15:06:38.944Z,22.62
2023-05-01T15:09:06.574Z,22.32
2023-05-01T15:11:34.092Z,21.80
2023-05-01T15:14:02.490Z,21.48
2023-05-01T15:16:30.925Z,21.11
2023-05-01T15:18:58.640Z,20.44
2023-05-01T15:21:27.572Z,19.77
2023-05-01T15:23:55.089Z,19.02
2023-05-01T15:26:22.624Z,18.86
2023-05-01T15:28:50.203Z,19.20
2023-05-01T15:31:18.258Z,19.44
2023-05-01T15:33:46.219Z,19.91
2023-05-01T15:36:13.797Z,20.19
2023-05-01T15:38:42.672Z,20.49
2023-05-01T15:41:10.263Z,20.78
2023-05-01T15:43:37.997Z,20.81
2023-05-01T15:46:05.810Z,21.17
2023-05-01T15:48:33.677Z,21.34
2023-05-01T15:51:01.181Z,21.52
2023-05-01T15:53:28.838Z,21.57
2023-05-01T15:55:58.724Z,22.03
2023-05-01T15:58:26.391Z,22.27
2023-05-01T16:00:54.068Z,22.53
2023-05-01T16:03:21.971Z,22.71
2023-05-01T16:05:49.615Z,22.65
2023-05-01T16:08:18.423Z,22.52
2023-05-01T16:10:46.249Z,22.22
2023-05-01T16:13:15.200Z,22.17
2023-05-01T16:15:42.774Z,21.92
2023-05-01T16:18:16.379Z,21.58
2023-05-01T16:20:44.301Z,21.42
2023-05-01T16:23:12.361Z,21.09
2023-05-01T16:25:42.950Z,20.95
2023-05-01T16:28:10.586Z,20.64
2023-05-01T16:30:43.479Z,20.24
2023-05-01T16:33:18.548Z,19.86
2023-05-01T16:35:48.366Z,19.42
2023-05-01T16:38:15.965Z,18.91
2023-05-01T16:40:44.355Z,18.57
2023-05-01T16:43:12.301Z,18.20
2023-05-01T16:45:40.140Z,17.84
2023-05-01T16:48:09.074Z,17.66
2023-05-01T16:50:40.393Z,17.55
2023-05-01T16:53:08.090Z,17.48
2023-05-01T16:55:35.811Z,17.27
2023-05-01T16:58:03.398Z,17.18
2023-05-01T17:00:31.259Z,17.04
2023-05-01T17:02:59.632Z,16.90
2023-05-01T17:05:28.657Z,16.73
2023-05-01T17:07:56.180Z,16.56
2023-05-01T17:10:23.769Z,16.47
2023-05-01T17:12:51.527Z,16.30
2023-05-01T17:15:19.333Z,16.13
2023-05-01T17:17:46.975Z,16.11
2023-05-01T17:20:14.697Z,15.86
2023-05-01T17:22:44.461Z,15.76
2023-05-01T17:25:12.305Z,15.77
2023-05-01T17:27:39.977Z,15.63
2023-05-01T17:30:08.746Z,15.59
2023-05-01T17:32:37.655Z,15.54
2023-05-01T17:35:06.591Z,15.57
2023-05-01T17:37:34.212Z,15.59
2023-05-01T17:40:05.001Z,15.54
2023-05-01T17:42:32.602Z,15.53
2023-05-01T17:45:00.145Z,15.55
2023-05-01T17:47:27.964Z,15.32
2023-05-01T17:49:55.789Z,15.39
2023-05-01T17:52:23.432Z,15.40
2023-05-01T17:54:51.097Z,15.37
2023-05-01T17:57:19.958Z,15.35
2023-05-01T17:59:47.543Z,15.35
2023-05-01T18:02:15.217Z,15.37
2023-05-01T18:04:42.816Z,15.27
2023-05-01T18:07:10.409Z,15.26
2023-05-01T18:09:37.972Z,15.24
2023-05-01T18:12:05.836Z,15.21
2023-05-01T18:14:34.769Z,15.17
2023-05-01T18:17:02.358Z,15.03
2023-05-01T18:19:30.113Z,15.03
2023-05-01T18:21:58.994Z,15.03
2023-05-01T18:24:26.991Z,14.94
2023-05-01T18:26:54.516Z,14.87
2023-05-01T18:29:22.791Z,14.84
2023-05-01T18:31:51.926Z,14.86
2023-05-01T18:34:20.030Z,14.84
2023-05-01T18:36:48.413Z,14.87
2023-05-01T18:39:16.219Z,14.89
2023-05-01T18:41:43.776Z,14.83
2023-05-01T18:44:11.418Z,14.78
2023-05-01T18:46:39.032Z,14.72
2023-05-01T18:49:07.958Z,14.69
2023-05-01T18:51:35.938Z,14.67
2023-05-01T18:54:04.951Z,14.64
2023-05-01T18:56:32.675Z,14.60
2023-05-01T18:59:00.390Z,14.53
2023-05-01T19:01:28.018Z,14.48
2023-05-01T19:03:58.857Z,14.39
2023-05-01T19:06:27.971Z,14.33
2023-05-01T19:08:55.598Z,14.22
2023-05-01T19:11:23.212Z,14.10
2023-05-01T19:13:50.710Z,13.92
2023-05-01T19:16:18.276Z,13.87
2023-05-01T19:18:48.312Z,13.73
2023-05-01T19:21:16.124Z,13.54
2023-05-01T19:23:45.035Z,13.52
2023-05-01T19:26:13.648Z,13.55
2023-05-01T19:28:41.820Z,13.54
2023-05-01T19:31:09.485Z,13.50
2023-05-01T19:33:37.225Z,13.40
2023-05-01T19:36:05.138Z,13.38
2023-05-01T19:38:33.753Z,13.36
2023-05-01T19:41:02.657Z,13.36
2023-05-01T19:43:30.209Z,13.35
2023-05-01T19:45:57.812Z,13.32
2023-05-01T19:48:25.517Z,13.26
2023-05-01T19:50:53.063Z,13.18
2023-05-01T19:53:20.891Z,13.19
2023-05-01T19:55:48.448Z,13.14
2023-05-01T19:58:17.398Z,13.02
2023-05-01T20:00:45.947Z,13.08
2023-05-01T20:03:15.559Z,13.08
2023-05-01T20:05:43.255Z,13.03
2023-05-01T20:08:10.994Z,13.01
2023-05-01T20:10:38.519Z,13.01
2023-05-01T20:13:10.903Z,12.96
2023-05-01T20:15:40.403Z,12.88
2023-05-01T20:18:08.087Z,12.70
2023-05-01T20:20:35.994Z,12.60
2023-05-01T20:23:10.981Z,12.62
2023-05-01T20:25:38.522Z,12.64
2023-05-01T20:28:06.952Z,12.64
2023-05-01T20:30:35.593Z,12.63
2023-05-01T20:33:04.808Z,12.61
2023-05-01T20:35:33.370Z,12.62
2023-05-01T20:38:01.152Z,12.65
2023-05-01T20:40:29.209Z,12.66
2023-05-01T20:42:59.246Z,12.58
2023-05-01T20:45:27.093Z,12.61
2023-05-01T20:47:55.251Z,12.63
2023-05-01T20:50:24.385Z,12.62
2023-05-01T20:52:52.531Z,12.60
2023-05-01T20:55:20.492Z,12.60
2023-05-01T20:57:48.250Z,12.61
2023-05-01T21:00:16.374Z,12.58
2023-05-01T21:02:44.153Z,12.55
2023-05-01T21:05:11.994Z,12.53
2023-05-01T21:07:41.635Z,12.51
2023-05-01T21:10:11.227Z,12.51
2023-05-01T21:12:38.897Z,12.51
2023-05-01T21:15:07.454Z,12.46
2023-05-01T21:17:37.291Z,12.45
2023-05-01T21:20:11.841Z,12.45
2023-05-01T21:22:42.454Z,12.51
2023-05-01T21:25:10.607Z,12.43
2023-05-01T21:27:41.302Z,12.34
2023-05-01T21:30:13.979Z,12.33
2023-05-01T21:32:41.773Z,12.36
2023-05-01T21:35:11.494Z,12.36
2023-05-01T21:37:44.563Z,12.39
2023-05-01T21:40:14.908Z,12.47
2023-05-01T21:42:42.733Z,12.50
2023-05-01T21:45:12.616Z,12.48
2023-05-01T21:47:41.923Z,12.49
2023-05-01T21:50:12.854Z,12.51
2023-05-01T21:52:42.082Z,12.48
2023-05-01T21:55:11.306Z,12.46
2023-05-01T21:57:40.391Z,12.48
2023-05-01T22:00:10.074Z,12.47
2023-05-01T22:02:42.364Z,12.45
2023-05-01T22:05:10.905Z,12.44
2023-05-01T22:07:45.126Z,12.40
2023-05-01T22:10:15.574Z,12.35
2023-05-01T22:12:43.522Z,12.37
2023-05-01T22:15:13.452Z,12.34
2023-05-01T22:17:41.582Z,12.36
2023-05-01T22:20:10.493Z,12.37
2023-05-01T22:22:39.584Z,12.36
2023-05-01T22:25:09.762Z,12.34
2023-05-01T22:27:37.537Z,12.31
2023-05-01T22:30:06.294Z,12.26
2023-05-01T22:32:34.214Z,12.22
2023-05-01T22:35:01.815Z,12.20
2023-05-01T22:37:29.400Z,12.20
2023-05-01T22:39:57.276Z,12.20
2023-05-01T22:42:26.567Z,12.17
2023-05-01T22:44:54.236Z,12.15
2023-05-01T22:47:21.796Z,12.12
2023-05-01T22:49:49.612Z,12.07
2023-05-01T22:52:17.160Z,12.04
2023-05-01T22:54:44.806Z,12.01
2023-05-01T22:57:12.460Z,12.02
2023-05-01T22:59:41.501Z,11.97
2023-05-01T23:02:09.187Z,11.96
2023-05-01T23:04:36.989Z,11.90
2023-05-01T23:07:04.899Z,11.84
2023-05-01T23:09:32.958Z,11.80
2023-05-01T23:12:00.643Z,11.71
2023-05-01T23:14:28.196Z,11.66
2023-05-01T23:16:57.400Z,11.56
2023-05-01T23:19:26.646Z,11.51
2023-05-01T23:22:07.116Z,11.46
2023-05-01T23:24:42.843Z,11.38
2023-05-01T23:27:10.690Z,11.25
2023-05-01T23:29:40.957Z,11.23
2023-05-01T23:32:24.816Z,11.17
2023-05-01T23:34:53.517Z,11.10
2023-05-01T23:37:21.582Z,11.06
2023-05-01T23:39:49.286Z,10.99
2023-05-01T23:42:16.928Z,10.96
2023-05-01T23:44:44.591Z,10.91
2023-05-01T23:47:13.539Z,10.89
2023-05-01T23:49:41.486Z,10.86
2023-05-01T23:52:09.139Z,10.80
2023-05-01T23:54:36.665Z,10.78
2023-05-01T23:57:04.305Z,10.67
2023-05-01T23:59:31.884Z,10.67
